createdAt,value
2019-06-15T00:00:02.361Z,21.43
2019-06-15T00:02:30.780Z,21.43
2019-06-15T00:04:59.234Z,21.42
2019-06-15T00:07:27.650Z,21.42
2019-06-15T00:09:56.371Z,21.40
2019-06-15T00:12:24.803Z,21.37
2019-06-15T00:14:53.325Z,21.31
2019-06-15T00:17:21.833Z,21.19
2019-06-15T00:19:50.293Z,21.18
2019-06-15T00:22:18.722Z,21.17
2019-06-15T00:24:47.176Z,21.14
2019-06-15T00:27:15.663Z,21.08
2019-06-15T00:29:44.149Z,21.07
2019-06-15T00:32:12.568Z,21.13
2019-06-15T00:34:41.026Z,21.28
2019-06-15T00:37:09.448Z,21.33
2019-06-15T00:39:37.905Z,21.38
2019-06-15T00:42:06.340Z,21.41
2019-06-15T00:44:34.866Z,21.44
2019-06-15T00:47:03.542Z,21.43
2019-06-15T00:49:32.021Z,21.41
2019-06-15T00:52:00.560Z,21.42
2019-06-15T00:54:29.084Z,21.39
2019-06-15T00:56:57.501Z,21.41
2019-06-15T00:59:25.962Z,21.41
2019-06-15T01:01:54.466Z,21.42
2019-06-15T01:04:22.891Z,21.41
2019-06-15T01:06:51.341Z,21.46
2019-06-15T01:09:19.774Z,21.50
2019-06-15T01:11:48.236Z,21.57
2019-06-15T01:14:16.659Z,21.65
2019-06-15T01:16:45.116Z,21.71
2019-06-15T01:19:13.613Z,21.66
2019-06-15T01:21:42.083Z,21.69
2019-06-15T01:24:10.498Z,21.70
2019-06-15T01:26:38.954Z,21.72
2019-06-15T01:29:07.376Z,21.69
2019-06-15T01:31:35.829Z,21.69
2019-06-15T01:34:04.403Z,21.66
2019-06-15T01:36:32.930Z,21.69
2019-06-15T01:39:01.422Z,21.69
2019-06-15T01:41:29.926Z,21.67
2019-06-15T01:43:58.449Z,21.60
2019-06-15T01:46:26.905Z,21.50
2019-06-15T01:48:55.401Z,21.49
2019-06-15T01:51:23.860Z,21.51
2019-06-15T01:53:52.291Z,21.53
2019-06-15T01:56:20.819Z,21.51
2019-06-15T01:58:49.245Z,21.43
2019-06-15T02:01:17.780Z,21.39
2019-06-15T02:03:46.206Z,21.34
2019-06-15T02:06:14.664Z,21.26
2019-06-15T02:08:43.169Z,21.27
2019-06-15T02:11:11.700Z,21.28
2019-06-15T02:13:40.137Z,21.17
2019-06-15T02:16:08.663Z,21.14
2019-06-15T02:18:37.208Z,21.18
2019-06-15T02:21:05.716Z,21.23
2019-06-15T02:23:34.178Z,21.25
2019-06-15T02:26:02.608Z,21.23
2019-06-15T02:28:31.061Z,21.23
2019-06-15T02:30:59.517Z,21.19
2019-06-15T02:33:27.964Z,21.16
2019-06-15T02:35:56.407Z,21.15
2019-06-15T02:38:24.861Z,21.18
2019-06-15T02:40:53.292Z,21.19
2019-06-15T02:43:21.750Z,21.18
2019-06-15T02:45:50.181Z,21.23
2019-06-15T02:48:18.640Z,21.28
2019-06-15T02:50:47.134Z,21.33
2019-06-15T02:53:15.661Z,21.37
2019-06-15T02:55:50.691Z,21.35
2019-06-15T02:58:14.340Z,21.34
2019-06-15T03:00:48.949Z,21.34
2019-06-15T03:03:17.470Z,21.40
2019-06-15T03:05:46.443Z,21.37
2019-06-15T03:08:14.980Z,21.35
2019-06-15T03:10:43.405Z,21.41
2019-06-15T03:13:13.019Z,21.41
2019-06-15T03:15:41.469Z,21.37
2019-06-15T03:18:09.979Z,21.38
2019-06-15T03:20:38.428Z,21.38
2019-06-15T03:23:06.861Z,21.34
2019-06-15T03:25:35.334Z,21.29
2019-06-15T03:28:03.844Z,21.27
2019-06-15T03:30:32.302Z,21.34
2019-06-15T03:33:00.732Z,21.35
2019-06-15T03:35:29.282Z,21.34
2019-06-15T03:37:57.780Z,21.32
2019-06-15T03:40:26.279Z,21.31
2019-06-15T03:42:54.756Z,21.30
2019-06-15T03:45:23.283Z,21.29
2019-06-15T03:47:51.714Z,21.26
2019-06-15T03:50:20.436Z,21.26
2019-06-15T03:52:48.871Z,21.26
2019-06-15T03:55:17.396Z,21.26
2019-06-15T03:57:45.893Z,21.24
2019-06-15T04:00:45.124Z,21.21
2019-06-15T04:03:13.667Z,21.23
2019-06-15T04:05:43.161Z,21.21
2019-06-15T04:08:11.737Z,21.15
2019-06-15T04:10:40.261Z,21.14
2019-06-15T04:13:08.764Z,21.12
2019-06-15T04:15:37.223Z,21.03
2019-06-15T04:18:05.730Z,20.97
2019-06-15T04:20:34.279Z,20.85
2019-06-15T04:23:02.713Z,20.76
2019-06-15T04:25:31.148Z,20.65
2019-06-15T04:27:59.610Z,20.59
2019-06-15T04:30:28.357Z,20.56
2019-06-15T04:32:56.828Z,20.46
2019-06-15T04:35:25.270Z,20.38
2019-06-15T04:37:53.749Z,20.32
2019-06-15T04:40:22.180Z,20.26
2019-06-15T04:42:50.643Z,20.20
2019-06-15T04:45:19.153Z,20.13
2019-06-15T04:47:47.619Z,20.08
2019-06-15T04:50:16.119Z,20.00
2019-06-15T04:52:44.573Z,19.91
2019-06-15T04:55:13.169Z,19.81
2019-06-15T04:57:41.636Z,19.75
2019-06-15T05:00:11.378Z,19.71
2019-06-15T05:02:40.472Z,19.69
2019-06-15T05:05:09.536Z,19.65
2019-06-15T05:07:37.994Z,19.63
2019-06-15T05:10:06.965Z,19.61
2019-06-15T05:12:35.696Z,19.60
2019-06-15T05:15:05.634Z,19.62
2019-06-15T05:17:34.160Z,19.66
2019-06-15T05:20:02.588Z,19.72
2019-06-15T05:22:31.051Z,19.75
2019-06-15T05:24:59.489Z,19.80
2019-06-15T05:27:27.940Z,19.84
2019-06-15T05:29:56.687Z,19.83
2019-06-15T05:32:25.502Z,19.79
2019-06-15T05:34:55.570Z,19.74
2019-06-15T05:37:24.005Z,19.55
2019-06-15T05:39:52.471Z,19.45
2019-06-15T05:42:25.021Z,19.40
2019-06-15T05:44:55.090Z,19.15
2019-06-15T05:47:23.518Z,18.75
2019-06-15T05:49:51.976Z,18.61
2019-06-15T05:52:20.410Z,18.56
2019-06-15T05:54:48.950Z,18.54
2019-06-15T05:57:21.497Z,18.56
2019-06-15T05:59:47.640Z,18.59
2019-06-15T06:02:16.072Z,18.58
2019-06-15T06:04:44.536Z,18.56
2019-06-15T06:07:12.965Z,18.60
2019-06-15T06:09:42.968Z,18.62
2019-06-15T06:12:14.550Z,18.65
2019-06-15T06:14:43.064Z,18.68
2019-06-15T06:17:11.499Z,18.69
2019-06-15T06:19:39.954Z,18.68
2019-06-15T06:22:08.654Z,18.68
2019-06-15T06:24:37.098Z,18.68
2019-06-15T06:27:05.557Z,18.68
2019-06-15T06:29:34.025Z,18.70
2019-06-15T06:32:02.445Z,18.69
2019-06-15T06:34:30.901Z,18.68
2019-06-15T06:36:59.339Z,18.67
2019-06-15T06:39:27.870Z,18.67
2019-06-15T06:41:56.332Z,18.60
2019-06-15T06:44:24.825Z,18.51
2019-06-15T06:46:53.325Z,18.46
2019-06-15T06:49:21.764Z,18.38
2019-06-15T06:51:50.230Z,18.29
2019-06-15T06:54:18.666Z,18.27
2019-06-15T06:56:47.127Z,18.26
2019-06-15T06:59:15.559Z,18.25
2019-06-15T07:01:44.025Z,18.27
2019-06-15T07:04:12.472Z,18.30
2019-06-15T07:06:40.948Z,18.34
2019-06-15T07:09:09.442Z,18.34
2019-06-15T07:11:37.899Z,18.36
2019-06-15T07:14:06.333Z,18.37
2019-06-15T07:16:34.805Z,18.40
2019-06-15T07:19:03.233Z,18.41
2019-06-15T07:21:31.699Z,18.45
2019-06-15T07:24:00.137Z,18.47
2019-06-15T07:26:29.046Z,18.49
